Time;durP1;ratioP1;P1;durP2;ratioP2;P2;SDS_P1;SDS_P2;PMS_P1;PMS_P2;Temp;Humidity;BMP_temperature;BMP_pressure;BME280_temperature;BME280_humidity;BME280_pressure;Samples;Min_cycle;Max_cycle;Signal;HPM_P1;HPM_P2
2021/08/31 00:01:43;;;;;;;6.70;6.07;;;;;;;;;;5032957;28;20219;-81
2021/08/31 00:04:09;;;;;;;7.00;6.17;;;;;;;;;;5032803;28;20242;-80
2021/08/31 00:06:37;;;;;;;9.67;6.37;;;;;;;;;;5032980;28;20220;-80
2021/08/31 00:09:04;;;;;;;7.00;6.40;;;;;;;;;;5032905;28;20212;-81
2021/08/31 00:11:31;;;;;;;9.53;6.37;;;;;;;;;;5032729;28;20235;-80
2021/08/31 00:13:58;;;;;;;6.87;6.17;;;;;;;;;;5032186;28;20197;-80
2021/08/31 00:16:24;;;;;;;6.83;6.23;;;;;;;;;;5032774;28;20738;-80
2021/08/31 00:18:51;;;;;;;8.23;6.50;;;;;;;;;;5032933;28;20653;-81
2021/08/31 00:21:18;;;;;;;7.33;6.63;;;;;;;;;;5032522;28;20235;-80
2021/08/31 00:23:46;;;;;;;7.43;6.70;;;;;;;;;;5032407;28;20273;-80
2021/08/31 00:26:13;;;;;;;7.27;6.67;;;;;;;;;;5032547;28;20204;-81
2021/08/31 00:28:39;;;;;;;7.30;6.70;;;;;;;;;;5048498;28;20639;-80
2021/08/31 00:31:06;;;;;;;8.13;6.97;;;;;;;;;;5034789;28;20194;-81
2021/08/31 00:33:33;;;;;;;8.43;7.40;;;;;;;;;;5053629;28;20203;-80
2021/08/31 00:36:03;;;;;;;8.23;7.13;;;;;;;;;;5053785;28;20239;-81
2021/08/31 00:38:30;;;;;;;8.97;7.37;;;;;;;;;;5053820;28;20227;-80
2021/08/31 00:40:58;;;;;;;8.70;7.73;;;;;;;;;;5053237;28;20215;-80
2021/08/31 00:43:25;;;;;;;9.40;7.50;;;;;;;;;;5034925;28;20253;-81
2021/08/31 00:45:52;;;;;;;13.87;7.40;;;;;;;;;;5035189;28;20226;-81
2021/08/31 00:48:19;;;;;;;11.73;7.50;;;;;;;;;;5035320;28;20242;-80
2021/08/31 00:50:47;;;;;;;8.80;8.00;;;;;;;;;;5035353;28;20248;-80
2021/08/31 00:53:14;;;;;;;9.20;7.90;;;;;;;;;;5035061;28;20228;-80
2021/08/31 00:55:42;;;;;;;11.13;8.03;;;;;;;;;;5035273;28;20199;-80
2021/08/31 00:58:10;;;;;;;9.40;8.47;;;;;;;;;;5052752;28;20243;-80
2021/08/31 01:00:36;;;;;;;8.60;7.80;;;;;;;;;;5052809;28;20211;-80
2021/08/31 01:03:03;;;;;;;9.53;8.73;;;;;;;;;;5035138;28;20191;-80
2021/08/31 01:05:30;;;;;;;11.40;8.30;;;;;;;;;;5035081;28;20563;-81
2021/08/31 01:07:57;;;;;;;10.60;8.87;;;;;;;;;;5053210;28;20248;-81
2021/08/31 01:10:24;;;;;;;9.20;8.37;;;;;;;;;;5053094;28;20282;-80
2021/08/31 01:12:52;;;;;;;9.73;8.90;;;;;;;;;;5052471;28;20231;-80
2021/08/31 01:15:20;;;;;;;12.20;9.10;;;;;;;;;;5052830;28;20214;-81
2021/08/31 01:17:47;;;;;;;9.43;8.60;;;;;;;;;;5034452;28;20702;-81
2021/08/31 01:20:14;;;;;;;9.33;8.30;;;;;;;;;;5052134;28;20239;-80
2021/08/31 01:22:40;;;;;;;8.67;7.87;;;;;;;;;;5034823;28;20559;-80
2021/08/31 01:25:09;;;;;;;9.33;8.43;;;;;;;;;;5052651;28;20246;-80
2021/08/31 01:27:36;;;;;;;11.53;8.23;;;;;;;;;;5034346;28;20227;-81
2021/08/31 01:30:03;;;;;;;8.93;8.03;;;;;;;;;;5052348;28;20621;-81
2021/08/31 01:32:30;;;;;;;9.50;7.53;;;;;;;;;;5052140;28;20211;-80
2021/08/31 01:34:56;;;;;;;12.13;8.40;;;;;;;;;;5052324;28;20251;-80
2021/08/31 01:37:23;;;;;;;10.87;7.80;;;;;;;;;;5052038;28;20231;-80
2021/08/31 01:39:50;;;;;;;8.60;7.80;;;;;;;;;;5052353;28;20574;-80
2021/08/31 01:42:18;;;;;;;11.27;7.47;;;;;;;;;;5052045;28;20231;-81
2021/08/31 01:44:44;;;;;;;8.37;7.60;;;;;;;;;;5034150;28;20648;-80
2021/08/31 01:47:12;;;;;;;8.17;7.23;;;;;;;;;;5034185;28;20551;-81
2021/08/31 01:49:38;;;;;;;10.23;7.43;;;;;;;;;;5052099;28;20254;-81
2021/08/31 01:52:05;;;;;;;8.77;7.27;;;;;;;;;;5052221;28;20238;-80
2021/08/31 01:54:32;;;;;;;8.10;7.30;;;;;;;;;;5034277;28;20670;-81
2021/08/31 01:56:58;;;;;;;8.43;7.03;;;;;;;;;;5051989;28;20589;-81
2021/08/31 01:59:27;;;;;;;8.03;7.27;;;;;;;;;;5051540;28;20235;-80
2021/08/31 02:01:53;;;;;;;10.27;7.17;;;;;;;;;;5051782;28;20235;-80
2021/08/31 02:04:20;;;;;;;7.70;6.93;;;;;;;;;;5051835;28;20218;-81
2021/08/31 02:06:47;;;;;;;8.23;6.83;;;;;;;;;;5051930;28;20203;-80
2021/08/31 02:09:13;;;;;;;8.70;7.00;;;;;;;;;;5033552;28;20254;-80
2021/08/31 02:11:40;;;;;;;7.83;6.90;;;;;;;;;;5051637;28;20214;-81
2021/08/31 02:14:06;;;;;;;11.50;7.53;;;;;;;;;;5033736;28;20191;-80
2021/08/31 02:16:35;;;;;;;7.97;7.17;;;;;;;;;;5033607;28;20219;-81
2021/08/31 02:19:02;;;;;;;10.23;7.43;;;;;;;;;;5033715;28;20716;-80
2021/08/31 02:21:29;;;;;;;8.17;6.97;;;;;;;;;;5051704;28;20211;-80
2021/08/31 02:23:55;;;;;;;8.43;7.40;;;;;;;;;;5033622;28;20682;-81
2021/08/31 02:26:22;;;;;;;8.27;7.47;;;;;;;;;;5051369;28;20246;-81
2021/08/31 02:28:49;;;;;;;8.23;7.23;;;;;;;;;;5051320;28;20262;-80
2021/08/31 02:31:15;;;;;;;10.70;8.03;;;;;;;;;;5051176;28;20605;-80
2021/08/31 02:33:43;;;;;;;16.83;8.23;;;;;;;;;;5033632;28;20592;-80
2021/08/31 02:36:10;;;;;;;13.87;8.03;;;;;;;;;;5033266;28;20591;-80
2021/08/31 02:38:37;;;;;;;8.67;7.87;;;;;;;;;;5051564;28;20196;-80
2021/08/31 02:41:03;;;;;;;8.13;7.43;;;;;;;;;;5051054;28;20230;-80
2021/08/31 02:43:30;;;;;;;8.67;7.77;;;;;;;;;;5033480;28;20725;-80
2021/08/31 02:45:56;;;;;;;11.50;7.47;;;;;;;;;;5051102;28;20714;-80
2021/08/31 02:48:23;;;;;;;7.57;6.97;;;;;;;;;;5032900;28;20235;-80
2021/08/31 02:50:51;;;;;;;9.73;7.57;;;;;;;;;;5050896;28;20718;-81
2021/08/31 02:53:18;;;;;;;12.60;7.50;;;;;;;;;;5032706;28;20651;-80
2021/08/31 02:55:45;;;;;;;8.37;7.57;;;;;;;;;;5033251;28;20219;-79
2021/08/31 02:58:11;;;;;;;7.80;7.10;;;;;;;;;;5033403;28;20391;-79
2021/08/31 03:00:42;;;;;;;9.57;7.47;;;;;;;;;;5050799;28;20215;-79
2021/08/31 03:03:09;;;;;;;8.10;7.30;;;;;;;;;;5051094;28;20199;-80
2021/08/31 03:05:36;;;;;;;13.23;7.90;;;;;;;;;;5033268;28;20191;-80
2021/08/31 03:08:04;;;;;;;8.13;7.33;;;;;;;;;;5033246;28;20241;-79
2021/08/31 03:10:31;;;;;;;9.77;7.20;;;;;;;;;;5032453;28;20243;-80
2021/08/31 03:12:57;;;;;;;9.20;7.00;;;;;;;;;;5050918;28;20204;-79
2021/08/31 03:15:24;;;;;;;8.23;7.53;;;;;;;;;;5033133;28;20227;-80
2021/08/31 03:17:52;;;;;;;7.90;7.20;;;;;;;;;;5033188;28;20203;-80
2021/08/31 03:20:19;;;;;;;8.13;7.27;;;;;;;;;;5051019;28;20250;-80
2021/08/31 03:22:46;;;;;;;8.50;7.73;;;;;;;;;;5032677;28;20200;-79
2021/08/31 03:25:14;;;;;;;8.23;7.43;;;;;;;;;;5032982;28;20495;-79
2021/08/31 03:27:40;;;;;;;9.07;8.17;;;;;;;;;;5050475;28;20865;-79
2021/08/31 03:30:07;;;;;;;9.07;8.13;;;;;;;;;;5032815;28;20304;-78
2021/08/31 03:32:34;;;;;;;8.90;8.00;;;;;;;;;;5032998;28;20191;-78
2021/08/31 03:35:01;;;;;;;8.97;8.10;;;;;;;;;;5050740;28;20239;-79
2021/08/31 03:37:27;;;;;;;9.37;8.47;;;;;;;;;;5050834;28;20203;-79
2021/08/31 03:39:54;;;;;;;11.47;7.97;;;;;;;;;;5033017;28;20222;-80
2021/08/31 03:42:22;;;;;;;10.30;7.87;;;;;;;;;;5051042;28;20211;-79
2021/08/31 03:44:49;;;;;;;11.13;8.20;;;;;;;;;;5033078;28;20208;-80
2021/08/31 03:47:16;;;;;;;11.00;8.00;;;;;;;;;;5033359;28;20724;-79
2021/08/31 03:49:43;;;;;;;8.83;8.03;;;;;;;;;;5032787;28;20540;-78
2021/08/31 03:52:09;;;;;;;9.20;8.07;;;;;;;;;;5032938;28;20600;-79
2021/08/31 03:54:36;;;;;;;11.20;7.27;;;;;;;;;;5033116;28;20598;-79
2021/08/31 03:57:03;;;;;;;8.63;7.13;;;;;;;;;;5032795;28;20195;-79
2021/08/31 03:59:31;;;;;;;9.10;7.43;;;;;;;;;;5050891;28;20247;-78
2021/08/31 04:01:58;;;;;;;9.00;7.23;;;;;;;;;;5032810;28;20192;-78
2021/08/31 04:04:25;;;;;;;8.37;7.40;;;;;;;;;;5051703;28;20203;-80
2021/08/31 04:06:52;;;;;;;8.80;8.00;;;;;;;;;;5054435;28;20234;-79
2021/08/31 04:09:18;;;;;;;8.73;7.83;;;;;;;;;;5036548;28;20253;-79
2021/08/31 04:11:45;;;;;;;8.70;7.50;;;;;;;;;;5054366;28;20690;-79
2021/08/31 04:14:13;;;;;;;11.57;8.37;;;;;;;;;;5036486;28;20655;-79
2021/08/31 04:16:41;;;;;;;10.97;8.07;;;;;;;;;;5036511;28;20211;-78
2021/08/31 04:19:07;;;;;;;8.83;7.93;;;;;;;;;;5036083;28;20586;-79
2021/08/31 04:21:34;;;;;;;8.47;7.20;;;;;;;;;;5036292;28;20227;-78
2021/08/31 04:24:01;;;;;;;8.97;8.13;;;;;;;;;;5053920;28;20218;-79
2021/08/31 04:26:28;;;;;;;9.40;8.40;;;;;;;;;;5035880;28;20203;-78
2021/08/31 04:28:54;;;;;;;9.37;7.50;;;;;;;;;;5032395;28;20327;-78
2021/08/31 04:31:22;;;;;;;8.73;7.47;;;;;;;;;;5032771;28;20236;-79
2021/08/31 04:33:50;;;;;;;8.87;7.63;;;;;;;;;;5032718;28;20234;-78
2021/08/31 04:36:17;;;;;;;10.93;8.00;;;;;;;;;;5033832;28;20211;-78
2021/08/31 04:38:44;;;;;;;9.90;7.33;;;;;;;;;;5032700;28;20188;-78
2021/08/31 04:41:11;;;;;;;10.93;7.63;;;;;;;;;;5032864;28;20196;-79
2021/08/31 04:43:38;;;;;;;8.10;7.30;;;;;;;;;;5034169;28;20251;-79
2021/08/31 04:46:05;;;;;;;8.47;7.67;;;;;;;;;;5032697;28;20224;-80
2021/08/31 04:48:31;;;;;;;8.07;7.27;;;;;;;;;;5032706;28;20687;-79
2021/08/31 04:50:59;;;;;;;9.93;8.60;;;;;;;;;;5032763;28;20223;-79
2021/08/31 04:53:27;;;;;;;9.60;8.37;;;;;;;;;;5032454;28;20231;-79
2021/08/31 04:55:54;;;;;;;8.93;8.03;;;;;;;;;;5033842;28;20207;-79
2021/08/31 04:58:20;;;;;;;10.90;8.00;;;;;;;;;;5032490;28;20648;-79
2021/08/31 05:00:47;;;;;;;12.43;8.13;;;;;;;;;;5032334;28;20668;-79
2021/08/31 05:03:14;;;;;;;9.33;7.97;;;;;;;;;;5032475;28;20188;-80
2021/08/31 05:05:42;;;;;;;9.47;8.47;;;;;;;;;;5032509;28;20668;-80
2021/08/31 05:08:10;;;;;;;12.83;8.27;;;;;;;;;;5032188;28;20200;-80
2021/08/31 05:10:39;;;;;;;11.10;7.83;;;;;;;;;;5032251;28;20244;-79
2021/08/31 05:13:06;;;;;;;9.97;8.70;;;;;;;;;;5032264;28;20561;-79
2021/08/31 05:15:33;;;;;;;8.80;8.10;;;;;;;;;;5031646;28;20224;-79
2021/08/31 05:18:00;;;;;;;8.67;7.90;;;;;;;;;;5032706;28;20244;-80
2021/08/31 05:20:28;;;;;;;9.70;8.70;;;;;;;;;;5033020;28;20228;-80
2021/08/31 05:22:55;;;;;;;9.13;8.27;;;;;;;;;;5031523;28;20204;-80
2021/08/31 05:25:23;;;;;;;9.07;8.20;;;;;;;;;;5031864;28;20250;-79
2021/08/31 05:27:51;;;;;;;9.47;8.43;;;;;;;;;;5031358;28;20326;-80
2021/08/31 05:30:18;;;;;;;9.27;7.73;;;;;;;;;;5032362;28;20236;-78
2021/08/31 05:32:45;;;;;;;9.50;8.30;;;;;;;;;;5031405;28;20262;-79
2021/08/31 05:35:12;;;;;;;9.10;8.20;;;;;;;;;;5032715;28;20212;-80
2021/08/31 05:37:38;;;;;;;10.30;8.77;;;;;;;;;;5031092;28;20200;-80
2021/08/31 05:40:06;;;;;;;9.10;8.27;;;;;;;;;;5032468;28;20248;-81
2021/08/31 05:42:34;;;;;;;10.93;8.60;;;;;;;;;;5033079;28;20236;-81
2021/08/31 05:45:01;;;;;;;9.13;8.23;;;;;;;;;;5030028;28;20209;-80
2021/08/31 05:47:29;;;;;;;9.57;8.50;;;;;;;;;;5030737;28;20251;-81
2021/08/31 05:49:56;;;;;;;8.57;7.67;;;;;;;;;;5030240;28;20315;-82
2021/08/31 05:52:22;;;;;;;9.10;7.67;;;;;;;;;;5030780;28;20937;-80
2021/08/31 05:54:49;;;;;;;8.23;7.43;;;;;;;;;;5031888;28;20203;-80
2021/08/31 05:57:15;;;;;;;11.17;8.00;;;;;;;;;;5030504;28;20241;-81
2021/08/31 05:59:43;;;;;;;8.53;7.23;;;;;;;;;;5031679;28;20703;-81
2021/08/31 06:02:10;;;;;;;9.27;8.37;;;;;;;;;;5031994;28;20585;-81
2021/08/31 06:04:37;;;;;;;8.77;7.97;;;;;;;;;;5030471;28;20231;-82
2021/08/31 06:07:05;;;;;;;8.83;8.03;;;;;;;;;;5030827;28;20285;-81
2021/08/31 06:09:31;;;;;;;9.30;8.30;;;;;;;;;;5030165;28;21002;-81
2021/08/31 06:11:58;;;;;;;8.20;7.40;;;;;;;;;;5030830;28;20290;-81
2021/08/31 06:14:25;;;;;;;10.67;7.43;;;;;;;;;;5030635;28;20234;-81
2021/08/31 06:16:53;;;;;;;7.83;7.13;;;;;;;;;;5031498;28;20656;-81
2021/08/31 06:19:20;;;;;;;8.20;7.37;;;;;;;;;;5029865;28;20223;-82
2021/08/31 06:21:47;;;;;;;7.80;7.10;;;;;;;;;;5031852;28;20803;-81
2021/08/31 06:24:14;;;;;;;8.57;7.33;;;;;;;;;;5030646;28;20258;-81
2021/08/31 06:26:40;;;;;;;7.30;6.60;;;;;;;;;;5032016;28;20212;-81
2021/08/31 06:29:07;;;;;;;8.57;7.10;;;;;;;;;;5029525;28;20731;-81
2021/08/31 06:31:34;;;;;;;8.97;7.00;;;;;;;;;;5031693;28;20251;-81
2021/08/31 06:34:02;;;;;;;8.67;6.80;;;;;;;;;;5030522;28;20204;-80
2021/08/31 06:36:28;;;;;;;7.40;6.80;;;;;;;;;;5031865;28;20211;-81
2021/08/31 06:38:55;;;;;;;7.27;6.67;;;;;;;;;;5031384;28;20239;-82
2021/08/31 06:41:22;;;;;;;9.47;6.83;;;;;;;;;;5031295;28;20211;-81
2021/08/31 06:43:48;;;;;;;7.23;6.63;;;;;;;;;;5031709;28;20750;-81
2021/08/31 06:46:15;;;;;;;7.90;7.10;;;;;;;;;;5030236;28;20226;-81
2021/08/31 06:48:42;;;;;;;13.33;6.53;;;;;;;;;;5030475;28;20200;-81
2021/08/31 06:51:10;;;;;;;7.67;5.90;;;;;;;;;;5029865;28;20228;-80
2021/08/31 06:53:37;;;;;;;6.77;6.13;;;;;;;;;;5031547;28;20236;-81
2021/08/31 06:56:04;;;;;;;8.13;6.53;;;;;;;;;;5030449;28;20227;-81
2021/08/31 06:58:31;;;;;;;6.87;6.10;;;;;;;;;;5031675;28;20266;-81
2021/08/31 07:00:58;;;;;;;8.83;7.20;;;;;;;;;;5030291;28;20191;-81
2021/08/31 07:03:24;;;;;;;6.43;5.93;;;;;;;;;;5031560;28;20615;-80
2021/08/31 07:05:51;;;;;;;8.63;6.00;;;;;;;;;;5029422;28;20225;-81
2021/08/31 07:08:19;;;;;;;6.70;6.07;;;;;;;;;;5031455;28;20257;-81
2021/08/31 07:10:46;;;;;;;7.73;5.87;;;;;;;;;;5029705;28;20207;-81
2021/08/31 07:13:14;;;;;;;6.10;5.50;;;;;;;;;;5029899;28;20239;-81
2021/08/31 07:15:41;;;;;;;7.33;6.17;;;;;;;;;;5031336;28;20204;-81
2021/08/31 07:18:07;;;;;;;6.73;6.00;;;;;;;;;;5031084;28;20641;-80
2021/08/31 07:20:34;;;;;;;6.60;6.10;;;;;;;;;;5031364;28;20679;-81
2021/08/31 07:23:01;;;;;;;6.00;5.50;;;;;;;;;;5030245;28;20224;-80
2021/08/31 07:25:29;;;;;;;6.33;5.60;;;;;;;;;;5030039;28;20235;-82
2021/08/31 07:27:55;;;;;;;5.90;5.30;;;;;;;;;;5029426;28;20255;-81
2021/08/31 07:30:22;;;;;;;5.87;5.40;;;;;;;;;;5029946;28;20220;-80
2021/08/31 07:32:49;;;;;;;6.27;5.67;;;;;;;;;;5029661;28;20247;-81
2021/08/31 07:35:15;;;;;;;6.60;5.40;;;;;;;;;;5029491;28;20239;-80
2021/08/31 07:37:42;;;;;;;7.13;6.10;;;;;;;;;;5031153;28;20215;-80
2021/08/31 07:40:09;;;;;;;6.23;5.63;;;;;;;;;;5033159;28;20204;-80
2021/08/31 07:42:37;;;;;;;6.27;5.70;;;;;;;;;;5034845;28;20240;-80
2021/08/31 07:45:08;;;;;;;8.17;5.43;;;;;;;;;;5033119;28;20559;-80
2021/08/31 07:47:34;;;;;;;7.00;5.60;;;;;;;;;;5035038;28;20211;-80
2021/08/31 07:50:05;;;;;;;6.40;5.90;;;;;;;;;;5033079;28;20224;-80
2021/08/31 07:52:32;;;;;;;6.37;5.43;;;;;;;;;;5033177;28;20252;-80
2021/08/31 07:54:58;;;;;;;8.83;6.00;;;;;;;;;;5034494;28;20204;-81
2021/08/31 07:57:27;;;;;;;5.77;5.27;;;;;;;;;;5032972;28;20196;-80
2021/08/31 07:59:54;;;;;;;5.77;5.17;;;;;;;;;;5032559;28;20684;-81
2021/08/31 08:02:21;;;;;;;6.90;4.80;;;;;;;;;;5034589;28;20196;-81
2021/08/31 08:04:48;;;;;;;7.07;5.03;;;;;;;;;;5032746;28;20200;-80
2021/08/31 08:07:14;;;;;;;9.07;5.73;;;;;;;;;;5032912;28;20232;-80
2021/08/31 08:09:41;;;;;;;13.27;6.70;;;;;;;;;;5033333;28;20223;-80
2021/08/31 08:12:09;;;;;;;6.00;5.50;;;;;;;;;;5034447;28;20727;-80
2021/08/31 08:14:36;;;;;;;6.30;5.70;;;;;;;;;;5034039;28;20715;-83
2021/08/31 08:17:04;;;;;;;5.70;5.20;;;;;;;;;;5034445;28;20204;-82
2021/08/31 08:19:31;;;;;;;5.73;5.20;;;;;;;;;;5034312;28;20680;-82
2021/08/31 08:21:58;;;;;;;5.20;4.70;;;;;;;;;;5034381;28;20240;-80
2021/08/31 08:24:25;;;;;;;5.03;4.60;;;;;;;;;;5034615;28;20240;-81
2021/08/31 08:26:52;;;;;;;6.73;5.27;;;;;;;;;;5032041;28;20254;-82
2021/08/31 08:29:19;;;;;;;5.77;5.17;;;;;;;;;;5032766;28;20688;-79
2021/08/31 08:31:47;;;;;;;6.93;4.67;;;;;;;;;;5034126;28;20556;-82
2021/08/31 08:34:15;;;;;;;9.57;5.30;;;;;;;;;;5034086;28;20208;-81
2021/08/31 08:36:42;;;;;;;6.50;5.40;;;;;;;;;;5032552;28;20660;-81
2021/08/31 08:39:09;;;;;;;5.47;4.97;;;;;;;;;;5032416;28;20246;-83
2021/08/31 08:41:36;;;;;;;5.87;5.10;;;;;;;;;;5034170;28;20216;-81
2021/08/31 08:44:03;;;;;;;5.67;5.17;;;;;;;;;;5033675;28;20201;-81
2021/08/31 08:46:29;;;;;;;5.60;5.20;;;;;;;;;;5032702;28;20227;-80
2021/08/31 08:48:57;;;;;;;5.67;5.27;;;;;;;;;;5032032;28;20227;-81
2021/08/31 08:51:26;;;;;;;7.33;5.47;;;;;;;;;;5031044;28;20266;-80
2021/08/31 08:53:52;;;;;;;6.97;5.80;;;;;;;;;;5031679;28;20240;-83
2021/08/31 08:56:20;;;;;;;7.20;5.63;;;;;;;;;;5033297;28;20239;-83
2021/08/31 08:58:47;;;;;;;6.23;5.63;;;;;;;;;;5033302;28;20304;-82
2021/08/31 09:01:14;;;;;;;6.63;4.90;;;;;;;;;;5031964;28;20391;-81
2021/08/31 09:03:41;;;;;;;5.73;5.13;;;;;;;;;;5033573;28;20234;-81
2021/08/31 09:06:10;;;;;;;5.30;4.90;;;;;;;;;;5032273;28;20238;-80
2021/08/31 09:08:40;;;;;;;5.70;5.20;;;;;;;;;;5031643;28;20211;-81
2021/08/31 09:11:21;;;;;;;5.77;5.03;;;;;;;;;;5033508;28;20211;-81
2021/08/31 09:13:48;;;;;;;6.37;5.20;;;;;;;;;;5031747;28;20235;-81
2021/08/31 09:16:32;;;;;;;5.00;4.50;;;;;;;;;;5031815;28;20243;-79
2021/08/31 09:18:59;;;;;;;5.30;4.80;;;;;;;;;;5016013;28;20254;-79
2021/08/31 09:21:27;;;;;;;10.20;5.07;;;;;;;;;;5031896;28;20234;-80
2021/08/31 09:23:55;;;;;;;6.33;5.40;;;;;;;;;;5032430;28;20193;-80
2021/08/31 09:26:32;;;;;;;10.17;6.00;;;;;;;;;;5031684;28;20204;-78
2021/08/31 09:29:02;;;;;;;6.70;5.50;;;;;;;;;;5032230;28;20259;-81
2021/08/31 09:31:29;;;;;;;6.57;5.40;;;;;;;;;;5015342;28;20199;-79
2021/08/31 09:33:59;;;;;;;5.50;5.00;;;;;;;;;;5032991;28;20240;-79
2021/08/31 09:36:26;;;;;;;7.23;5.50;;;;;;;;;;5031015;28;20216;-79
2021/08/31 09:38:58;;;;;;;5.57;5.07;;;;;;;;;;5031414;28;20602;-79
2021/08/31 09:41:26;;;;;;;7.03;5.30;;;;;;;;;;5031373;28;20262;-79
2021/08/31 09:43:55;;;;;;;6.33;4.87;;;;;;;;;;5033132;28;20235;-79
2021/08/31 09:46:22;;;;;;;8.30;4.50;;;;;;;;;;5031544;28;20197;-81
2021/08/31 09:48:48;;;;;;;5.13;4.73;;;;;;;;;;5031828;28;20214;-80
2021/08/31 09:51:18;;;;;;;6.80;5.00;;;;;;;;;;5031765;28;20258;-80
2021/08/31 09:53:44;;;;;;;7.00;5.50;;;;;;;;;;5032094;28;20746;-81
2021/08/31 09:56:15;;;;;;;6.00;5.40;;;;;;;;;;5031468;28;20609;-81
2021/08/31 09:58:42;;;;;;;5.60;5.13;;;;;;;;;;5033562;28;20251;-80
2021/08/31 10:01:12;;;;;;;5.33;4.93;;;;;;;;;;5030981;28;20697;-82
2021/08/31 10:03:40;;;;;;;6.57;4.30;;;;;;;;;;5033122;28;20235;-81
2021/08/31 10:06:07;;;;;;;4.57;3.90;;;;;;;;;;5030993;28;20206;-83
2021/08/31 10:08:36;;;;;;;4.50;4.13;;;;;;;;;;5031717;28;20517;-81
2021/08/31 10:11:03;;;;;;;4.27;3.93;;;;;;;;;;5031139;28;20196;-81
2021/08/31 10:13:33;;;;;;;4.30;3.97;;;;;;;;;;5030692;28;20247;-81
2021/08/31 10:16:00;;;;;;;4.40;4.00;;;;;;;;;;5031033;28;20227;-82
2021/08/31 10:18:28;;;;;;;4.20;3.83;;;;;;;;;;5031187;28;20258;-82
2021/08/31 10:20:56;;;;;;;5.03;4.03;;;;;;;;;;5030735;28;20735;-82
2021/08/31 10:23:25;;;;;;;3.83;3.60;;;;;;;;;;5030770;28;20223;-83
2021/08/31 10:25:51;;;;;;;4.03;3.73;;;;;;;;;;5032113;28;20211;-80
2021/08/31 10:28:23;;;;;;;5.13;3.70;;;;;;;;;;5030754;28;20264;-81
2021/08/31 10:30:51;;;;;;;5.10;4.00;;;;;;;;;;5030374;28;20235;-82
2021/08/31 10:33:32;;;;;;;4.07;3.77;;;;;;;;;;5030912;28;20240;-80
2021/08/31 10:35:59;;;;;;;4.70;4.20;;;;;;;;;;5030906;28;20223;-81
2021/08/31 10:38:53;;;;;;;4.60;3.90;;;;;;;;;;5032265;28;20235;-80
2021/08/31 10:41:42;;;;;;;4.30;3.90;;;;;;;;;;4973891;28;20200;-80
2021/08/31 10:44:09;;;;;;;3.67;3.30;;;;;;;;;;5032405;28;20236;-80
2021/08/31 10:46:55;;;;;;;3.83;3.53;;;;;;;;;;5031950;28;20234;-82
2021/08/31 10:49:23;;;;;;;3.85;3.63;;;;;;;;;;5030685;28;20577;-81
2021/08/31 10:52:04;;;;;;;4.53;4.13;;;;;;;;;;5031478;28;20738;-81
2021/08/31 10:54:43;;;;;;;4.50;4.10;;;;;;;;;;5030087;28;20212;-79
2021/08/31 10:57:24;;;;;;;4.73;4.13;;;;;;;;;;5030614;28;20204;-80
2021/08/31 10:59:51;;;;;;;4.07;3.67;;;;;;;;;;5028930;28;20203;-80
2021/08/31 11:02:32;;;;;;;5.85;3.55;;;;;;;;;;5030282;28;20361;-80
2021/08/31 11:05:15;;;;;;;3.53;3.30;;;;;;;;;;5031119;28;20241;-80
2021/08/31 11:07:43;;;;;;;5.35;3.60;;;;;;;;;;5031425;28;20266;-80
2021/08/31 11:10:10;;;;;;;5.75;4.00;;;;;;;;;;5032245;28;20595;-80
2021/08/31 11:12:37;;;;;;;4.95;3.80;;;;;;;;;;5030148;28;20774;-81
2021/08/31 11:15:03;;;;;;;6.20;3.88;;;;;;;;;;5032255;28;20236;-80
2021/08/31 11:17:31;;;;;;;4.38;3.97;;;;;;;;;;5034065;28;20227;-81
2021/08/31 11:20:11;;;;;;;3.60;3.30;;;;;;;;;;5035503;28;20207;-81
2021/08/31 11:22:38;;;;;;;4.70;3.75;;;;;;;;;;5033950;28;20204;-82
2021/08/31 11:25:06;;;;;;;4.38;3.17;;;;;;;;;;5033968;28;20220;-80
2021/08/31 11:27:48;;;;;;;4.15;3.20;;;;;;;;;;5040655;28;20255;-81
2021/08/31 11:30:14;;;;;;;4.65;3.60;;;;;;;;;;5037234;28;20758;-82
2021/08/31 11:32:41;;;;;;;3.60;3.40;;;;;;;;;;5054637;28;20238;-82
2021/08/31 11:35:08;;;;;;;7.78;3.83;;;;;;;;;;5054795;28;20254;-78
2021/08/31 11:37:47;;;;;;;3.77;3.40;;;;;;;;;;5054623;28;20223;-82
2021/08/31 11:40:15;;;;;;;3.58;3.30;;;;;;;;;;5037190;28;20195;-80
2021/08/31 11:42:51;;;;;;;3.80;3.50;;;;;;;;;;5054898;28;20691;-82
2021/08/31 11:45:18;;;;;;;6.30;3.50;;;;;;;;;;5055011;28;20203;-82
2021/08/31 11:47:45;;;;;;;4.40;4.00;;;;;;;;;;5036978;28;20204;-81
2021/08/31 11:50:12;;;;;;;4.63;4.03;;;;;;;;;;5036865;28;20253;-80
2021/08/31 11:52:39;;;;;;;8.32;3.50;;;;;;;;;;5054700;28;20238;-82
2021/08/31 11:55:06;;;;;;;4.53;3.43;;;;;;;;;;5054864;28;20840;-83
2021/08/31 11:57:34;;;;;;;4.07;3.78;;;;;;;;;;5054439;28;20269;-80
2021/08/31 12:00:01;;;;;;;3.80;3.40;;;;;;;;;;5036292;28;20231;-80
2021/08/31 12:02:28;;;;;;;3.80;3.50;;;;;;;;;;5036537;28;20219;-79
2021/08/31 12:05:05;;;;;;;3.92;3.65;;;;;;;;;;5036743;28;20555;-78
2021/08/31 12:07:36;;;;;;;5.53;3.42;;;;;;;;;;5036663;28;20211;-81
2021/08/31 12:10:04;;;;;;;4.53;4.03;;;;;;;;;;5054441;28;20208;-79
2021/08/31 12:12:31;;;;;;;4.07;3.63;;;;;;;;;;5036661;28;20238;-80
2021/08/31 12:14:59;;;;;;;6.78;3.65;;;;;;;;;;5036202;28;20269;-80
2021/08/31 12:17:30;;;;;;;4.35;3.80;;;;;;;;;;5036220;28;20207;-80
2021/08/31 12:20:07;;;;;;;4.03;3.70;;;;;;;;;;5054238;28;20218;-79
2021/08/31 12:22:34;;;;;;;4.40;3.50;;;;;;;;;;5035944;28;20729;-81
2021/08/31 12:25:01;;;;;;;4.20;3.83;;;;;;;;;;5036037;28;20598;-82
2021/08/31 12:27:36;;;;;;;4.45;3.55;;;;;;;;;;5031794;28;20239;-79
2021/08/31 12:30:05;;;;;;;4.28;3.38;;;;;;;;;;5034316;28;20254;-80
2021/08/31 12:32:34;;;;;;;3.87;3.60;;;;;;;;;;5034148;28;20750;-80
2021/08/31 12:35:20;;;;;;;4.45;3.45;;;;;;;;;;5032773;28;20604;-80
2021/08/31 12:37:49;;;;;;;4.00;3.70;;;;;;;;;;5032770;28;20270;-80
2021/08/31 12:40:17;;;;;;;7.17;4.03;;;;;;;;;;5033105;28;20211;-79
2021/08/31 12:42:45;;;;;;;5.47;3.70;;;;;;;;;;5033058;28;20204;-79
2021/08/31 12:45:13;;;;;;;5.43;3.80;;;;;;;;;;5032810;28;20707;-79
2021/08/31 12:47:52;;;;;;;4.30;3.60;;;;;;;;;;5032989;28;20254;-78
2021/08/31 12:50:19;;;;;;;4.68;4.03;;;;;;;;;;5032776;28;20228;-77
2021/08/31 12:52:56;;;;;;;7.28;4.10;;;;;;;;;;5034104;28;20218;-79
2021/08/31 12:55:28;;;;;;;4.80;4.30;;;;;;;;;;5032293;28;20235;-81
2021/08/31 12:57:55;;;;;;;4.30;3.78;;;;;;;;;;5032738;28;20686;-79
2021/08/31 13:00:25;;;;;;;4.20;3.80;;;;;;;;;;5034108;28;20208;-77
2021/08/31 13:02:55;;;;;;;6.03;3.60;;;;;;;;;;5034278;28;20204;-81
2021/08/31 13:05:24;;;;;;;4.15;3.67;;;;;;;;;;5032586;28;20251;-79
2021/08/31 13:07:51;;;;;;;7.20;3.55;;;;;;;;;;5032575;28;20204;-79
2021/08/31 13:10:19;;;;;;;4.10;3.67;;;;;;;;;;5033894;28;20201;-79
2021/08/31 13:12:46;;;;;;;5.13;3.90;;;;;;;;;;5032416;28;20227;-79
2021/08/31 13:15:13;;;;;;;4.78;4.13;;;;;;;;;;5032416;28;20239;-79
2021/08/31 13:17:41;;;;;;;4.32;3.88;;;;;;;;;;5032632;28;20223;-78
2021/08/31 13:20:08;;;;;;;5.07;3.80;;;;;;;;;;5032061;28;20208;-78
2021/08/31 13:22:35;;;;;;;6.07;4.00;;;;;;;;;;5033632;28;20240;-78
2021/08/31 13:25:02;;;;;;;6.93;4.25;;;;;;;;;;5031870;28;20734;-79
2021/08/31 13:27:29;;;;;;;5.80;4.10;;;;;;;;;;5037968;28;20278;-79
2021/08/31 13:29:55;;;;;;;5.63;4.60;;;;;;;;;;5035567;28;20199;-80
2021/08/31 13:32:22;;;;;;;10.82;5.38;;;;;;;;;;5053137;28;20184;-80
2021/08/31 13:34:50;;;;;;;10.13;4.97;;;;;;;;;;5053079;28;20247;-79
2021/08/31 13:37:17;;;;;;;5.90;4.90;;;;;;;;;;5035467;28;20261;-80
2021/08/31 13:39:44;;;;;;;8.18;4.22;;;;;;;;;;5053210;28;20301;-78
2021/08/31 13:42:10;;;;;;;5.65;4.03;;;;;;;;;;5035438;28;20655;-78
2021/08/31 13:44:38;;;;;;;6.30;3.90;;;;;;;;;;5035374;28;20903;-78
2021/08/31 13:47:04;;;;;;;4.40;4.00;;;;;;;;;;5035492;28;20495;-77
2021/08/31 13:49:31;;;;;;;4.07;3.78;;;;;;;;;;5035177;28;20241;-78
2021/08/31 13:51:59;;;;;;;6.40;3.97;;;;;;;;;;5035183;28;20566;-78
2021/08/31 13:54:26;;;;;;;6.13;3.92;;;;;;;;;;5035441;28;20655;-78
2021/08/31 13:56:53;;;;;;;4.50;3.72;;;;;;;;;;5052610;28;20222;-77
2021/08/31 13:59:20;;;;;;;3.60;3.30;;;;;;;;;;5035371;28;20210;-77
2021/08/31 14:01:47;;;;;;;3.83;3.55;;;;;;;;;;5035306;28;20230;-76
2021/08/31 14:04:14;;;;;;;4.30;3.58;;;;;;;;;;5051993;28;20277;-77
2021/08/31 14:06:41;;;;;;;4.90;3.60;;;;;;;;;;5034657;28;20191;-77
2021/08/31 14:09:09;;;;;;;5.93;5.43;;;;;;;;;;5034515;28;20607;-78
2021/08/31 14:11:36;;;;;;;5.15;4.20;;;;;;;;;;5034424;28;20250;-79
2021/08/31 14:14:03;;;;;;;4.90;3.72;;;;;;;;;;5034537;28;20218;-77
2021/08/31 14:16:29;;;;;;;5.18;3.53;;;;;;;;;;5051904;28;20211;-78
2021/08/31 14:18:56;;;;;;;4.28;3.88;;;;;;;;;;5034082;28;20242;-79
2021/08/31 14:21:23;;;;;;;4.28;3.88;;;;;;;;;;5034027;28;20200;-77
2021/08/31 14:23:49;;;;;;;5.00;3.78;;;;;;;;;;5034116;28;20686;-77
2021/08/31 14:26:20;;;;;;;7.18;3.85;;;;;;;;;;5033909;28;20535;-78
2021/08/31 14:28:46;;;;;;;5.82;5.22;;;;;;;;;;5030409;28;20738;-77
2021/08/31 14:31:13;;;;;;;4.10;3.80;;;;;;;;;;5030660;28;20602;-78
2021/08/31 14:33:43;;;;;;;4.43;3.60;;;;;;;;;;5030573;28;20596;-80
2021/08/31 14:36:09;;;;;;;3.60;3.30;;;;;;;;;;5030763;28;20696;-78
2021/08/31 14:38:36;;;;;;;3.78;3.55;;;;;;;;;;5031688;28;20608;-80
2021/08/31 14:41:04;;;;;;;4.57;3.05;;;;;;;;;;5031634;28;20236;-79
2021/08/31 14:43:32;;;;;;;3.40;3.20;;;;;;;;;;5032111;28;20212;-79
2021/08/31 14:45:59;;;;;;;3.60;2.72;;;;;;;;;;5031710;28;20235;-79